sensor_id;sensor_type;location;lat;lon;timestamp;temperature;humidity
16643;DHT22;8435;52.184;5.406;2024-02-26T00:00:25;8.40;99.90
16643;DHT22;8435;52.184;5.406;2024-02-26T00:02:54;8.40;99.90
16643;DHT22;8435;52.184;5.406;2024-02-26T00:05:20;8.40;99.90
16643;DHT22;8435;52.184;5.406;2024-02-26T00:07:47;8.40;99.90
16643;DHT22;8435;52.184;5.406;2024-02-26T00:10:16;8.30;99.90
16643;DHT22;8435;52.184;5.406;2024-02-26T00:12:42;8.30;99.90
16643;DHT22;8435;52.184;5.406;2024-02-26T00:15:10;8.30;99.90
16643;DHT22;8435;52.184;5.406;2024-02-26T00:17:37;8.30;99.90
16643;DHT22;8435;52.184;5.406;2024-02-26T00:20:05;8.30;99.90
16643;DHT22;8435;52.184;5.406;2024-02-26T00:22:34;8.30;99.90
16643;DHT22;8435;52.184;5.406;2024-02-26T00:25:00;8.30;99.90
16643;DHT22;8435;52.184;5.406;2024-02-26T00:27:27;8.30;99.90
16643;DHT22;8435;52.184;5.406;2024-02-26T00:29:54;8.20;99.90
16643;DHT22;8435;52.184;5.406;2024-02-26T00:32:22;8.20;99.90
16643;DHT22;8435;52.184;5.406;2024-02-26T00:34:49;8.20;99.90
16643;DHT22;8435;52.184;5.406;2024-02-26T00:37:16;8.20;99.90
16643;DHT22;8435;52.184;5.406;2024-02-26T00:39:42;8.10;99.90
16643;DHT22;8435;52.184;5.406;2024-02-26T00:42:10;8.10;99.90
16643;DHT22;8435;52.184;5.406;2024-02-26T00:44:36;8.10;99.90
16643;DHT22;8435;52.184;5.406;2024-02-26T00:47:03;8.10;99.90
16643;DHT22;8435;52.184;5.406;2024-02-26T00:49:31;8.10;99.90
16643;DHT22;8435;52.184;5.406;2024-02-26T00:51:58;8.00;99.90
16643;DHT22;8435;52.184;5.406;2024-02-26T00:54:25;8.10;99.90
16643;DHT22;8435;52.184;5.406;2024-02-26T00:56:52;8.00;99.90
16643;DHT22;8435;52.184;5.406;2024-02-26T00:59:18;8.00;99.90
16643;DHT22;8435;52.184;5.406;2024-02-26T01:01:45;8.00;99.90
16643;DHT22;8435;52.184;5.406;2024-02-26T01:04:12;7.90;99.90
16643;DHT22;8435;52.184;5.406;2024-02-26T01:06:40;8.00;99.90
16643;DHT22;8435;52.184;5.406;2024-02-26T01:09:06;7.90;99.90
16643;DHT22;8435;52.184;5.406;2024-02-26T01:11:33;7.90;99.90
16643;DHT22;8435;52.184;5.406;2024-02-26T01:14:00;7.90;99.90
16643;DHT22;8435;52.184;5.406;2024-02-26T01:16:27;7.90;99.90
16643;DHT22;8435;52.184;5.406;2024-02-26T01:18:54;7.80;99.90
16643;DHT22;8435;52.184;5.406;2024-02-26T01:21:21;7.90;99.90
16643;DHT22;8435;52.184;5.406;2024-02-26T01:23:49;7.80;99.90
16643;DHT22;8435;52.184;5.406;2024-02-26T01:26:16;7.80;99.90
16643;DHT22;8435;52.184;5.406;2024-02-26T01:28:43;7.80;99.90
16643;DHT22;8435;52.184;5.406;2024-02-26T01:31:10;7.70;99.90
16643;DHT22;8435;52.184;5.406;2024-02-26T01:33:36;7.70;99.90
16643;DHT22;8435;52.184;5.406;2024-02-26T01:36:04;7.70;99.90
16643;DHT22;8435;52.184;5.406;2024-02-26T01:38:30;7.70;99.90
16643;DHT22;8435;52.184;5.406;2024-02-26T01:40:58;7.70;99.90
16643;DHT22;8435;52.184;5.406;2024-02-26T01:43:25;7.70;99.90
16643;DHT22;8435;52.184;5.406;2024-02-26T01:45:52;7.70;99.90
16643;DHT22;8435;52.184;5.406;2024-02-26T01:48:19;7.70;99.90
16643;DHT22;8435;52.184;5.406;2024-02-26T01:50:46;7.70;99.90
16643;DHT22;8435;52.184;5.406;2024-02-26T01:53:13;7.70;99.90
16643;DHT22;8435;52.184;5.406;2024-02-26T01:55:41;7.70;99.90
16643;DHT22;8435;52.184;5.406;2024-02-26T01:58:09;7.60;99.90
16643;DHT22;8435;52.184;5.406;2024-02-26T02:00:37;7.70;99.90
16643;DHT22;8435;52.184;5.406;2024-02-26T02:03:05;7.70;99.90
16643;DHT22;8435;52.184;5.406;2024-02-26T02:05:32;7.70;99.90
16643;DHT22;8435;52.184;5.406;2024-02-26T02:07:59;7.70;99.90
16643;DHT22;8435;52.184;5.406;2024-02-26T02:10:29;7.70;99.90
16643;DHT22;8435;52.184;5.406;2024-02-26T02:12:55;7.70;99.90
16643;DHT22;8435;52.184;5.406;2024-02-26T02:15:23;7.70;99.90
16643;DHT22;8435;52.184;5.406;2024-02-26T02:17:50;7.70;99.90
16643;DHT22;8435;52.184;5.406;2024-02-26T02:20:17;7.60;99.90
16643;DHT22;8435;52.184;5.406;2024-02-26T02:22:46;7.60;99.90
16643;DHT22;8435;52.184;5.406;2024-02-26T02:25:13;7.70;99.90
16643;DHT22;8435;52.184;5.406;2024-02-26T02:27:40;7.70;99.90
16643;DHT22;8435;52.184;5.406;2024-02-26T02:30:08;7.70;99.90
16643;DHT22;8435;52.184;5.406;2024-02-26T02:32:37;7.70;99.90
16643;DHT22;8435;52.184;5.406;2024-02-26T02:35:04;7.60;99.90
16643;DHT22;8435;52.184;5.406;2024-02-26T02:37:31;7.70;99.90
16643;DHT22;8435;52.184;5.406;2024-02-26T02:39:59;7.70;99.90
16643;DHT22;8435;52.184;5.406;2024-02-26T02:42:26;7.70;99.90
16643;DHT22;8435;52.184;5.406;2024-02-26T02:44:53;7.70;99.90
16643;DHT22;8435;52.184;5.406;2024-02-26T02:47:20;7.70;99.90
16643;DHT22;8435;52.184;5.406;2024-02-26T02:49:46;7.70;99.90
16643;DHT22;8435;52.184;5.406;2024-02-26T02:52:13;7.70;99.90
16643;DHT22;8435;52.184;5.406;2024-02-26T02:54:40;7.70;99.90
16643;DHT22;8435;52.184;5.406;2024-02-26T02:57:09;7.70;99.90
16643;DHT22;8435;52.184;5.406;2024-02-26T02:59:36;7.70;99.90
16643;DHT22;8435;52.184;5.406;2024-02-26T03:02:02;7.70;99.90
16643;DHT22;8435;52.184;5.406;2024-02-26T03:04:30;7.70;99.90
16643;DHT22;8435;52.184;5.406;2024-02-26T03:06:57;7.70;99.90
16643;DHT22;8435;52.184;5.406;2024-02-26T03:09:24;7.80;99.90
16643;DHT22;8435;52.184;5.406;2024-02-26T03:11:51;7.80;99.90
16643;DHT22;8435;52.184;5.406;2024-02-26T03:14:19;7.70;99.90
16643;DHT22;8435;52.184;5.406;2024-02-26T03:16:46;7.70;99.90
16643;DHT22;8435;52.184;5.406;2024-02-26T03:19:14;7.80;99.90
16643;DHT22;8435;52.184;5.406;2024-02-26T03:21:41;7.70;99.90
16643;DHT22;8435;52.184;5.406;2024-02-26T03:24:08;7.80;99.90
16643;DHT22;8435;52.184;5.406;2024-02-26T03:26:35;7.70;99.90
16643;DHT22;8435;52.184;5.406;2024-02-26T03:29:02;7.80;99.90
16643;DHT22;8435;52.184;5.406;2024-02-26T03:31:30;7.80;99.90
16643;DHT22;8435;52.184;5.406;2024-02-26T03:33:57;7.70;99.90
16643;DHT22;8435;52.184;5.406;2024-02-26T03:36:24;7.80;99.90
16643;DHT22;8435;52.184;5.406;2024-02-26T03:38:51;7.70;99.90
16643;DHT22;8435;52.184;5.406;2024-02-26T03:41:18;7.70;99.90
16643;DHT22;8435;52.184;5.406;2024-02-26T03:43:44;7.70;99.90
16643;DHT22;8435;52.184;5.406;2024-02-26T03:46:11;7.80;99.90
16643;DHT22;8435;52.184;5.406;2024-02-26T03:48:40;7.70;99.90
16643;DHT22;8435;52.184;5.406;2024-02-26T03:51:08;7.80;99.90
16643;DHT22;8435;52.184;5.406;2024-02-26T03:53:35;7.80;99.90
16643;DHT22;8435;52.184;5.406;2024-02-26T03:56:03;7.80;99.90
16643;DHT22;8435;52.184;5.406;2024-02-26T03:58:30;7.80;99.90
16643;DHT22;8435;52.184;5.406;2024-02-26T04:00:58;7.80;99.90
16643;DHT22;8435;52.184;5.406;2024-02-26T04:03:25;7.80;99.90
16643;DHT22;8435;52.184;5.406;2024-02-26T04:05:53;7.80;99.90
16643;DHT22;8435;52.184;5.406;2024-02-26T04:08:20;7.80;99.90
16643;DHT22;8435;52.184;5.406;2024-02-26T04:10:47;7.80;99.90
16643;DHT22;8435;52.184;5.406;2024-02-26T04:13:13;7.80;99.90
16643;DHT22;8435;52.184;5.406;2024-02-26T04:15:40;7.70;99.90
16643;DHT22;8435;52.184;5.406;2024-02-26T04:18:07;7.80;99.90
16643;DHT22;8435;52.184;5.406;2024-02-26T04:20:34;7.80;99.90
16643;DHT22;8435;52.184;5.406;2024-02-26T04:23:02;7.80;99.90
16643;DHT22;8435;52.184;5.406;2024-02-26T04:25:29;7.80;99.90
16643;DHT22;8435;52.184;5.406;2024-02-26T04:27:56;7.80;99.90
16643;DHT22;8435;52.184;5.406;2024-02-26T04:30:22;7.80;99.90
16643;DHT22;8435;52.184;5.406;2024-02-26T04:32:49;7.80;99.90
16643;DHT22;8435;52.184;5.406;2024-02-26T04:35:16;7.80;99.90
16643;DHT22;8435;52.184;5.406;2024-02-26T04:37:43;7.80;99.90
16643;DHT22;8435;52.184;5.406;2024-02-26T04:40:12;7.80;99.90
16643;DHT22;8435;52.184;5.406;2024-02-26T04:42:39;7.80;99.90
16643;DHT22;8435;52.184;5.406;2024-02-26T04:45:06;7.80;99.90
16643;DHT22;8435;52.184;5.406;2024-02-26T04:47:33;7.80;99.90
16643;DHT22;8435;52.184;5.406;2024-02-26T04:50:00;7.80;99.90
16643;DHT22;8435;52.184;5.406;2024-02-26T04:52:27;7.80;99.90
16643;DHT22;8435;52.184;5.406;2024-02-26T04:54:54;7.80;99.90
16643;DHT22;8435;52.184;5.406;2024-02-26T04:57:22;7.80;99.90
16643;DHT22;8435;52.184;5.406;2024-02-26T04:59:49;7.80;99.90
16643;DHT22;8435;52.184;5.406;2024-02-26T05:02:16;7.80;99.90
16643;DHT22;8435;52.184;5.406;2024-02-26T05:04:42;7.80;99.90
16643;DHT22;8435;52.184;5.406;2024-02-26T05:07:09;7.80;99.90
16643;DHT22;8435;52.184;5.406;2024-02-26T05:09:36;7.80;99.90
16643;DHT22;8435;52.184;5.406;2024-02-26T05:12:03;7.80;99.90
16643;DHT22;8435;52.184;5.406;2024-02-26T05:14:32;7.80;99.90
16643;DHT22;8435;52.184;5.406;2024-02-26T05:16:58;7.80;99.90
16643;DHT22;8435;52.184;5.406;2024-02-26T05:19:25;7.80;99.90
16643;DHT22;8435;52.184;5.406;2024-02-26T05:21:52;7.80;99.90
16643;DHT22;8435;52.184;5.406;2024-02-26T05:24:18;7.80;99.90
16643;DHT22;8435;52.184;5.406;2024-02-26T05:26:48;7.80;99.90
16643;DHT22;8435;52.184;5.406;2024-02-26T05:29:15;7.80;99.90
16643;DHT22;8435;52.184;5.406;2024-02-26T05:31:43;7.80;99.90
16643;DHT22;8435;52.184;5.406;2024-02-26T05:34:10;7.80;99.90
16643;DHT22;8435;52.184;5.406;2024-02-26T05:36:37;7.80;99.90
16643;DHT22;8435;52.184;5.406;2024-02-26T05:39:04;7.80;99.90
16643;DHT22;8435;52.184;5.406;2024-02-26T05:41:31;7.80;99.90
16643;DHT22;8435;52.184;5.406;2024-02-26T05:43:58;7.80;99.90
16643;DHT22;8435;52.184;5.406;2024-02-26T05:46:25;7.80;99.90
16643;DHT22;8435;52.184;5.406;2024-02-26T05:48:53;7.80;99.90
16643;DHT22;8435;52.184;5.406;2024-02-26T05:51:20;7.80;99.90
16643;DHT22;8435;52.184;5.406;2024-02-26T05:53:47;7.80;99.90
16643;DHT22;8435;52.184;5.406;2024-02-26T05:56:19;7.80;99.90
16643;DHT22;8435;52.184;5.406;2024-02-26T05:58:46;7.80;99.90
16643;DHT22;8435;52.184;5.406;2024-02-26T06:01:13;7.80;99.90
16643;DHT22;8435;52.184;5.406;2024-02-26T06:03:39;7.80;99.90
16643;DHT22;8435;52.184;5.406;2024-02-26T06:06:08;7.90;99.90
16643;DHT22;8435;52.184;5.406;2024-02-26T06:08:34;7.90;99.90
16643;DHT22;8435;52.184;5.406;2024-02-26T06:11:05;7.90;99.90
16643;DHT22;8435;52.184;5.406;2024-02-26T06:13:32;8.00;99.90
16643;DHT22;8435;52.184;5.406;2024-02-26T06:15:59;8.00;99.90
16643;DHT22;8435;52.184;5.406;2024-02-26T06:18:25;8.00;99.90
16643;DHT22;8435;52.184;5.406;2024-02-26T06:20:52;8.00;99.90
16643;DHT22;8435;52.184;5.406;2024-02-26T06:23:21;8.00;99.90
16643;DHT22;8435;52.184;5.406;2024-02-26T06:25:47;8.10;99.90
16643;DHT22;8435;52.184;5.406;2024-02-26T06:28:14;8.10;99.90
16643;DHT22;8435;52.184;5.406;2024-02-26T06:30:41;8.00;99.90
16643;DHT22;8435;52.184;5.406;2024-02-26T06:33:07;8.10;99.90
16643;DHT22;8435;52.184;5.406;2024-02-26T06:35:34;8.10;99.90
16643;DHT22;8435;52.184;5.406;2024-02-26T06:38:01;8.10;99.90
16643;DHT22;8435;52.184;5.406;2024-02-26T06:40:29;8.10;99.90
16643;DHT22;8435;52.184;5.406;2024-02-26T06:42:56;8.10;99.90
16643;DHT22;8435;52.184;5.406;2024-02-26T06:45:23;8.10;99.90
16643;DHT22;8435;52.184;5.406;2024-02-26T06:47:49;8.10;99.90
16643;DHT22;8435;52.184;5.406;2024-02-26T06:50:16;8.10;99.90
16643;DHT22;8435;52.184;5.406;2024-02-26T06:52:44;8.10;99.90
16643;DHT22;8435;52.184;5.406;2024-02-26T06:55:10;8.10;99.90
16643;DHT22;8435;52.184;5.406;2024-02-26T06:57:40;8.10;99.90
16643;DHT22;8435;52.184;5.406;2024-02-26T07:00:08;8.10;99.90
16643;DHT22;8435;52.184;5.406;2024-02-26T07:02:39;8.10;99.90
16643;DHT22;8435;52.184;5.406;2024-02-26T07:05:07;8.10;99.90
16643;DHT22;8435;52.184;5.406;2024-02-26T07:07:33;8.00;99.90
16643;DHT22;8435;52.184;5.406;2024-02-26T07:10:00;8.00;99.90
16643;DHT22;8435;52.184;5.406;2024-02-26T07:12:29;8.00;99.90
16643;DHT22;8435;52.184;5.406;2024-02-26T07:14:57;8.00;99.90
16643;DHT22;8435;52.184;5.406;2024-02-26T07:17:23;8.00;99.90
16643;DHT22;8435;52.184;5.406;2024-02-26T07:19:50;8.00;99.90
16643;DHT22;8435;52.184;5.406;2024-02-26T07:22:17;8.00;99.90
16643;DHT22;8435;52.184;5.406;2024-02-26T07:24:44;7.90;99.90
16643;DHT22;8435;52.184;5.406;2024-02-26T07:27:10;7.90;99.90
16643;DHT22;8435;52.184;5.406;2024-02-26T07:29:37;7.90;99.90
16643;DHT22;8435;52.184;5.406;2024-02-26T07:32:06;7.90;99.90
16643;DHT22;8435;52.184;5.406;2024-02-26T07:34:33;7.90;99.90
16643;DHT22;8435;52.184;5.406;2024-02-26T07:37:00;8.00;99.90
16643;DHT22;8435;52.184;5.406;2024-02-26T07:39:28;7.90;99.90
16643;DHT22;8435;52.184;5.406;2024-02-26T07:41:55;7.90;99.90
16643;DHT22;8435;52.184;5.406;2024-02-26T07:44:22;7.90;99.90
16643;DHT22;8435;52.184;5.406;2024-02-26T07:46:48;7.90;99.90
16643;DHT22;8435;52.184;5.406;2024-02-26T07:49:16;7.90;99.90
16643;DHT22;8435;52.184;5.406;2024-02-26T07:51:43;7.90;99.90
16643;DHT22;8435;52.184;5.406;2024-02-26T07:54:10;7.90;99.90
16643;DHT22;8435;52.184;5.406;2024-02-26T07:56:37;8.00;99.90
16643;DHT22;8435;52.184;5.406;2024-02-26T07:59:04;7.90;99.90
16643;DHT22;8435;52.184;5.406;2024-02-26T08:01:30;8.00;99.90
16643;DHT22;8435;52.184;5.406;2024-02-26T08:03:57;8.00;99.90
16643;DHT22;8435;52.184;5.406;2024-02-26T08:06:25;8.00;99.90
16643;DHT22;8435;52.184;5.406;2024-02-26T08:08:52;8.00;99.90
16643;DHT22;8435;52.184;5.406;2024-02-26T08:11:19;7.90;99.90
16643;DHT22;8435;52.184;5.406;2024-02-26T08:13:46;7.90;99.90
16643;DHT22;8435;52.184;5.406;2024-02-26T08:16:13;7.90;99.90
16643;DHT22;8435;52.184;5.406;2024-02-26T08:18:40;7.90;99.90
16643;DHT22;8435;52.184;5.406;2024-02-26T08:21:07;7.90;99.90
16643;DHT22;8435;52.184;5.406;2024-02-26T08:23:37;7.90;99.90
16643;DHT22;8435;52.184;5.406;2024-02-26T08:26:04;7.90;99.90
16643;DHT22;8435;52.184;5.406;2024-02-26T08:28:32;7.90;99.90
16643;DHT22;8435;52.184;5.406;2024-02-26T08:30:59;7.90;99.90
16643;DHT22;8435;52.184;5.406;2024-02-26T08:33:26;7.90;99.90
16643;DHT22;8435;52.184;5.406;2024-02-26T08:35:53;7.90;99.90
16643;DHT22;8435;52.184;5.406;2024-02-26T08:38:22;7.90;99.90
16643;DHT22;8435;52.184;5.406;2024-02-26T08:40:50;7.90;99.90
16643;DHT22;8435;52.184;5.406;2024-02-26T08:43:16;7.90;99.90
16643;DHT22;8435;52.184;5.406;2024-02-26T08:45:44;7.90;99.90
16643;DHT22;8435;52.184;5.406;2024-02-26T08:48:13;7.90;99.90
16643;DHT22;8435;52.184;5.406;2024-02-26T08:50:41;7.90;99.90
16643;DHT22;8435;52.184;5.406;2024-02-26T08:53:08;7.90;99.90
16643;DHT22;8435;52.184;5.406;2024-02-26T08:55:34;7.90;99.90
16643;DHT22;8435;52.184;5.406;2024-02-26T08:58:06;7.90;99.90
16643;DHT22;8435;52.184;5.406;2024-02-26T09:00:32;7.90;99.90
16643;DHT22;8435;52.184;5.406;2024-02-26T09:02:59;7.90;99.90
16643;DHT22;8435;52.184;5.406;2024-02-26T09:05:26;7.90;99.90
16643;DHT22;8435;52.184;5.406;2024-02-26T09:07:53;7.90;99.90
16643;DHT22;8435;52.184;5.406;2024-02-26T09:10:20;7.90;99.90
16643;DHT22;8435;52.184;5.406;2024-02-26T09:12:47;7.90;99.90
16643;DHT22;8435;52.184;5.406;2024-02-26T09:15:16;7.90;99.90
16643;DHT22;8435;52.184;5.406;2024-02-26T09:17:42;7.90;99.90
16643;DHT22;8435;52.184;5.406;2024-02-26T09:20:11;7.90;99.90
16643;DHT22;8435;52.184;5.406;2024-02-26T09:22:39;7.90;99.90
16643;DHT22;8435;52.184;5.406;2024-02-26T09:25:06;7.90;99.90
16643;DHT22;8435;52.184;5.406;2024-02-26T09:27:33;7.80;99.90
16643;DHT22;8435;52.184;5.406;2024-02-26T09:30:00;7.90;99.90
16643;DHT22;8435;52.184;5.406;2024-02-26T09:32:28;7.90;99.90
16643;DHT22;8435;52.184;5.406;2024-02-26T09:34:56;7.90;99.90
16643;DHT22;8435;52.184;5.406;2024-02-26T09:37:22;8.00;99.90
16643;DHT22;8435;52.184;5.406;2024-02-26T09:39:49;8.00;99.90
16643;DHT22;8435;52.184;5.406;2024-02-26T09:42:18;8.00;99.90
16643;DHT22;8435;52.184;5.406;2024-02-26T09:44:46;8.00;99.90
16643;DHT22;8435;52.184;5.406;2024-02-26T09:47:17;8.20;99.90
16643;DHT22;8435;52.184;5.406;2024-02-26T09:49:47;8.00;99.90
16643;DHT22;8435;52.184;5.406;2024-02-26T09:52:15;7.90;99.90
16643;DHT22;8435;52.184;5.406;2024-02-26T09:54:47;8.00;99.90
16643;DHT22;8435;52.184;5.406;2024-02-26T09:57:15;7.90;99.90
16643;DHT22;8435;52.184;5.406;2024-02-26T09:59:43;8.00;99.90
16643;DHT22;8435;52.184;5.406;2024-02-26T10:02:12;8.00;99.90
16643;DHT22;8435;52.184;5.406;2024-02-26T10:04:40;7.90;99.90
16643;DHT22;8435;52.184;5.406;2024-02-26T10:07:11;8.00;99.90
16643;DHT22;8435;52.184;5.406;2024-02-26T10:09:38;8.00;99.90
16643;DHT22;8435;52.184;5.406;2024-02-26T10:12:08;8.00;99.90
16643;DHT22;8435;52.184;5.406;2024-02-26T10:14:35;8.00;99.90
16643;DHT22;8435;52.184;5.406;2024-02-26T10:17:03;8.00;99.90
16643;DHT22;8435;52.184;5.406;2024-02-26T10:19:31;8.10;99.90
16643;DHT22;8435;52.184;5.406;2024-02-26T10:21:58;8.00;99.90
16643;DHT22;8435;52.184;5.406;2024-02-26T10:24:28;8.10;99.90
16643;DHT22;8435;52.184;5.406;2024-02-26T10:26:55;8.10;99.90
16643;DHT22;8435;52.184;5.406;2024-02-26T10:29:24;8.20;99.90
16643;DHT22;8435;52.184;5.406;2024-02-26T10:31:52;8.10;99.90
16643;DHT22;8435;52.184;5.406;2024-02-26T10:34:19;8.20;99.90
16643;DHT22;8435;52.184;5.406;2024-02-26T10:36:46;8.20;99.90
16643;DHT22;8435;52.184;5.406;2024-02-26T10:39:13;8.20;99.90
16643;DHT22;8435;52.184;5.406;2024-02-26T10:41:42;8.20;99.90
16643;DHT22;8435;52.184;5.406;2024-02-26T10:44:10;8.20;99.90
16643;DHT22;8435;52.184;5.406;2024-02-26T10:46:37;8.30;99.90
16643;DHT22;8435;52.184;5.406;2024-02-26T10:49:04;8.30;99.90
16643;DHT22;8435;52.184;5.406;2024-02-26T10:51:35;8.30;99.90
16643;DHT22;8435;52.184;5.406;2024-02-26T10:54:04;8.40;99.90
16643;DHT22;8435;52.184;5.406;2024-02-26T10:56:34;8.30;99.90
16643;DHT22;8435;52.184;5.406;2024-02-26T10:59:06;8.40;99.90
16643;DHT22;8435;52.184;5.406;2024-02-26T11:01:35;8.40;99.90
16643;DHT22;8435;52.184;5.406;2024-02-26T11:04:04;8.40;99.90
16643;DHT22;8435;52.184;5.406;2024-02-26T11:06:31;8.40;99.90
16643;DHT22;8435;52.184;5.406;2024-02-26T11:09:01;8.40;99.90
16643;DHT22;8435;52.184;5.406;2024-02-26T11:11:29;8.40;99.90
16643;DHT22;8435;52.184;5.406;2024-02-26T11:13:56;8.50;99.90
16643;DHT22;8435;52.184;5.406;2024-02-26T11:16:26;8.40;99.90
16643;DHT22;8435;52.184;5.406;2024-02-26T11:18:54;8.50;99.90
16643;DHT22;8435;52.184;5.406;2024-02-26T11:21:21;8.50;99.90
16643;DHT22;8435;52.184;5.406;2024-02-26T11:23:53;8.60;99.90
16643;DHT22;8435;52.184;5.406;2024-02-26T11:26:21;8.60;99.90
16643;DHT22;8435;52.184;5.406;2024-02-26T11:28:49;8.50;99.90
16643;DHT22;8435;52.184;5.406;2024-02-26T11:31:17;8.70;99.90
16643;DHT22;8435;52.184;5.406;2024-02-26T11:34:01;8.60;99.90
16643;DHT22;8435;52.184;5.406;2024-02-26T11:36:27;8.70;99.90
16643;DHT22;8435;52.184;5.406;2024-02-26T11:38:55;8.70;99.90
16643;DHT22;8435;52.184;5.406;2024-02-26T11:41:22;8.80;99.90
16643;DHT22;8435;52.184;5.406;2024-02-26T11:43:53;8.80;99.90
16643;DHT22;8435;52.184;5.406;2024-02-26T11:46:27;8.80;99.90
16643;DHT22;8435;52.184;5.406;2024-02-26T11:48:56;8.80;99.90
16643;DHT22;8435;52.184;5.406;2024-02-26T11:51:25;8.80;99.90
16643;DHT22;8435;52.184;5.406;2024-02-26T11:53:53;8.80;99.90
16643;DHT22;8435;52.184;5.406;2024-02-26T11:56:23;8.80;99.90
16643;DHT22;8435;52.184;5.406;2024-02-26T11:58:57;8.80;99.90
16643;DHT22;8435;52.184;5.406;2024-02-26T12:01:44;8.80;99.90
16643;DHT22;8435;52.184;5.406;2024-02-26T12:04:18;8.80;99.90
16643;DHT22;8435;52.184;5.406;2024-02-26T12:06:55;8.80;99.90
16643;DHT22;8435;52.184;5.406;2024-02-26T12:09:33;8.80;99.90
16643;DHT22;8435;52.184;5.406;2024-02-26T12:12:01;8.80;99.90
16643;DHT22;8435;52.184;5.406;2024-02-26T12:14:28;8.80;99.90
16643;DHT22;8435;52.184;5.406;2024-02-26T12:16:55;8.80;99.90
16643;DHT22;8435;52.184;5.406;2024-02-26T12:19:25;8.80;99.90
16643;DHT22;8435;52.184;5.406;2024-02-26T12:21:52;8.90;99.90
16643;DHT22;8435;52.184;5.406;2024-02-26T12:24:22;8.90;99.90
16643;DHT22;8435;52.184;5.406;2024-02-26T12:26:49;8.90;99.90
16643;DHT22;8435;52.184;5.406;2024-02-26T12:29:16;8.90;99.90
16643;DHT22;8435;52.184;5.406;2024-02-26T12:31:43;8.90;99.90
16643;DHT22;8435;52.184;5.406;2024-02-26T12:34:10;9.00;99.90
16643;DHT22;8435;52.184;5.406;2024-02-26T12:36:38;8.90;99.90
16643;DHT22;8435;52.184;5.406;2024-02-26T12:39:07;8.90;99.90
16643;DHT22;8435;52.184;5.406;2024-02-26T12:41:35;9.00;99.90
16643;DHT22;8435;52.184;5.406;2024-02-26T12:44:02;9.00;99.90
16643;DHT22;8435;52.184;5.406;2024-02-26T12:46:28;9.00;99.90
16643;DHT22;8435;52.184;5.406;2024-02-26T12:48:56;9.00;99.90
16643;DHT22;8435;52.184;5.406;2024-02-26T12:51:24;9.00;99.90
16643;DHT22;8435;52.184;5.406;2024-02-26T12:53:53;9.10;99.90
16643;DHT22;8435;52.184;5.406;2024-02-26T12:56:21;8.90;99.90
16643;DHT22;8435;52.184;5.406;2024-02-26T12:58:48;8.90;99.90
16643;DHT22;8435;52.184;5.406;2024-02-26T13:01:19;8.90;99.90
16643;DHT22;8435;52.184;5.406;2024-02-26T13:03:46;8.90;99.90
16643;DHT22;8435;52.184;5.406;2024-02-26T13:06:13;8.90;99.90
16643;DHT22;8435;52.184;5.406;2024-02-26T13:08:40;8.90;99.90
16643;DHT22;8435;52.184;5.406;2024-02-26T13:11:12;8.90;99.90
16643;DHT22;8435;52.184;5.406;2024-02-26T13:13:39;8.90;99.90
16643;DHT22;8435;52.184;5.406;2024-02-26T13:16:07;8.90;99.90
16643;DHT22;8435;52.184;5.406;2024-02-26T13:18:34;8.90;99.90
16643;DHT22;8435;52.184;5.406;2024-02-26T13:21:12;8.80;99.90
16643;DHT22;8435;52.184;5.406;2024-02-26T13:23:40;8.90;99.90
16643;DHT22;8435;52.184;5.406;2024-02-26T13:26:08;8.90;99.90
16643;DHT22;8435;52.184;5.406;2024-02-26T13:28:36;8.90;99.90
16643;DHT22;8435;52.184;5.406;2024-02-26T13:31:04;8.90;99.90
16643;DHT22;8435;52.184;5.406;2024-02-26T13:33:33;8.90;99.90
16643;DHT22;8435;52.184;5.406;2024-02-26T13:36:01;8.90;99.90
16643;DHT22;8435;52.184;5.406;2024-02-26T13:38:28;8.90;99.90
16643;DHT22;8435;52.184;5.406;2024-02-26T13:40:55;8.90;99.90
16643;DHT22;8435;52.184;5.406;2024-02-26T13:43:24;9.00;99.90
16643;DHT22;8435;52.184;5.406;2024-02-26T13:45:52;9.00;99.90
16643;DHT22;8435;52.184;5.406;2024-02-26T13:48:19;9.00;99.90
16643;DHT22;8435;52.184;5.406;2024-02-26T13:50:46;9.00;99.90
16643;DHT22;8435;52.184;5.406;2024-02-26T13:53:13;9.00;99.90
16643;DHT22;8435;52.184;5.406;2024-02-26T13:55:40;9.00;99.90
16643;DHT22;8435;52.184;5.406;2024-02-26T13:58:08;9.10;99.90
16643;DHT22;8435;52.184;5.406;2024-02-26T14:00:35;9.10;99.90
16643;DHT22;8435;52.184;5.406;2024-02-26T14:03:03;9.10;99.90
16643;DHT22;8435;52.184;5.406;2024-02-26T14:05:30;9.10;99.90
16643;DHT22;8435;52.184;5.406;2024-02-26T14:07:57;9.20;99.90
16643;DHT22;8435;52.184;5.406;2024-02-26T14:10:24;9.20;99.90
16643;DHT22;8435;52.184;5.406;2024-02-26T14:12:51;9.20;99.90
16643;DHT22;8435;52.184;5.406;2024-02-26T14:15:18;9.20;99.90
16643;DHT22;8435;52.184;5.406;2024-02-26T14:17:45;9.20;99.90
16643;DHT22;8435;52.184;5.406;2024-02-26T14:20:20;9.20;99.90
16643;DHT22;8435;52.184;5.406;2024-02-26T14:22:46;9.20;99.90
16643;DHT22;8435;52.184;5.406;2024-02-26T14:25:13;9.20;99.90
16643;DHT22;8435;52.184;5.406;2024-02-26T14:27:40;9.20;99.90
16643;DHT22;8435;52.184;5.406;2024-02-26T14:30:07;9.20;99.90
16643;DHT22;8435;52.184;5.406;2024-02-26T14:32:34;9.30;99.90
16643;DHT22;8435;52.184;5.406;2024-02-26T14:35:04;9.20;99.90
16643;DHT22;8435;52.184;5.406;2024-02-26T14:37:33;9.30;99.90
16643;DHT22;8435;52.184;5.406;2024-02-26T14:40:00;9.30;99.90
16643;DHT22;8435;52.184;5.406;2024-02-26T14:42:26;9.30;99.90
16643;DHT22;8435;52.184;5.406;2024-02-26T14:44:53;9.30;99.90
16643;DHT22;8435;52.184;5.406;2024-02-26T14:47:20;9.30;99.90
16643;DHT22;8435;52.184;5.406;2024-02-26T14:49:47;9.40;99.90
16643;DHT22;8435;52.184;5.406;2024-02-26T14:52:14;9.40;99.90
16643;DHT22;8435;52.184;5.406;2024-02-26T14:54:42;9.40;99.90
16643;DHT22;8435;52.184;5.406;2024-02-26T14:57:09;9.40;99.90
16643;DHT22;8435;52.184;5.406;2024-02-26T14:59:35;9.40;99.90
16643;DHT22;8435;52.184;5.406;2024-02-26T15:02:03;9.50;99.90
16643;DHT22;8435;52.184;5.406;2024-02-26T15:04:30;9.50;99.90
16643;DHT22;8435;52.184;5.406;2024-02-26T15:06:56;9.50;99.90
16643;DHT22;8435;52.184;5.406;2024-02-26T15:09:23;9.50;99.90
16643;DHT22;8435;52.184;5.406;2024-02-26T15:11:51;9.50;99.90
16643;DHT22;8435;52.184;5.406;2024-02-26T15:14:18;9.50;99.90
16643;DHT22;8435;52.184;5.406;2024-02-26T15:16:45;9.50;99.90
16643;DHT22;8435;52.184;5.406;2024-02-26T15:19:12;9.50;99.90
16643;DHT22;8435;52.184;5.406;2024-02-26T15:21:42;9.50;99.90
16643;DHT22;8435;52.184;5.406;2024-02-26T15:24:09;9.50;99.90
16643;DHT22;8435;52.184;5.406;2024-02-26T15:26:36;9.50;99.90
16643;DHT22;8435;52.184;5.406;2024-02-26T15:29:05;9.50;99.90
16643;DHT22;8435;52.184;5.406;2024-02-26T15:31:31;9.50;99.90
16643;DHT22;8435;52.184;5.406;2024-02-26T15:33:58;9.50;99.90
16643;DHT22;8435;52.184;5.406;2024-02-26T15:36:25;9.50;99.90
16643;DHT22;8435;52.184;5.406;2024-02-26T15:38:52;9.50;99.90
16643;DHT22;8435;52.184;5.406;2024-02-26T15:41:19;9.50;99.90
16643;DHT22;8435;52.184;5.406;2024-02-26T15:43:45;9.50;99.90
16643;DHT22;8435;52.184;5.406;2024-02-26T15:46:15;9.50;99.90
16643;DHT22;8435;52.184;5.406;2024-02-26T15:48:42;9.40;99.90
16643;DHT22;8435;52.184;5.406;2024-02-26T15:51:18;9.40;99.90
16643;DHT22;8435;52.184;5.406;2024-02-26T15:53:45;9.40;99.90
16643;DHT22;8435;52.184;5.406;2024-02-26T15:56:11;9.40;99.90
16643;DHT22;8435;52.184;5.406;2024-02-26T15:58:38;9.40;99.90
16643;DHT22;8435;52.184;5.406;2024-02-26T16:01:05;9.40;99.90
16643;DHT22;8435;52.184;5.406;2024-02-26T16:03:37;9.40;99.90